createdAt,value
2022-12-12T00:00:09.427Z,-0.22
2022-12-12T00:02:20.857Z,-0.19
2022-12-12T00:04:25.802Z,-0.15
2022-12-12T00:06:31.518Z,-0.27
2022-12-12T00:08:37.915Z,-0.24
2022-12-12T00:10:42.803Z,-0.19
2022-12-12T00:12:47.573Z,-0.24
2022-12-12T00:14:52.362Z,-0.39
2022-12-12T00:16:57.199Z,-0.40
2022-12-12T00:19:04.653Z,-0.38
2022-12-12T00:21:14.885Z,-0.43
2022-12-12T00:23:19.904Z,-0.49
2022-12-12T00:25:24.677Z,-0.51
2022-12-12T00:27:29.489Z,-0.52
2022-12-12T00:29:34.282Z,-0.54
2022-12-12T00:31:39.108Z,-0.55
2022-12-12T00:33:44.910Z,-0.57
2022-12-12T00:35:56.417Z,-0.57
2022-12-12T00:38:01.194Z,-0.62
2022-12-12T00:40:07.792Z,-0.60
2022-12-12T00:42:12.630Z,-0.61
2022-12-12T00:44:17.613Z,-0.65
2022-12-12T00:46:24.620Z,-0.68
2022-12-12T00:48:29.896Z,-0.75
2022-12-12T00:50:34.479Z,-0.84
2022-12-12T00:52:42.052Z,-0.82
2022-12-12T00:54:46.843Z,-0.88
2022-12-12T00:56:51.603Z,-0.88
2022-12-12T00:58:56.738Z,-0.87
2022-12-12T01:01:06.588Z,-0.89
2022-12-12T01:03:11.506Z,-0.81
2022-12-12T01:05:17.540Z,-0.79
2022-12-12T01:07:22.327Z,-0.78
2022-12-12T01:09:29.795Z,-0.78
2022-12-12T01:11:34.638Z,-0.66
2022-12-12T01:13:40.064Z,-0.54
2022-12-12T01:15:44.886Z,-0.52
2022-12-12T01:17:49.865Z,-0.44
2022-12-12T01:19:54.677Z,-0.44
2022-12-12T01:21:59.450Z,-0.38
2022-12-12T01:24:04.571Z,-0.34
2022-12-12T01:26:12.965Z,-0.35
2022-12-12T01:28:17.748Z,-0.33
2022-12-12T01:30:24.808Z,-0.36
2022-12-12T01:32:29.599Z,-0.35
2022-12-12T01:34:34.397Z,-0.50
2022-12-12T01:36:39.188Z,-0.62
2022-12-12T01:38:45.544Z,-0.62
2022-12-12T01:40:50.341Z,-0.67
2022-12-12T01:42:57.897Z,-0.70
2022-12-12T01:45:03.150Z,-0.71
2022-12-12T01:47:08.168Z,-0.70
2022-12-12T01:49:20.086Z,-0.70
2022-12-12T01:51:28.019Z,-0.66
2022-12-12T01:53:34.571Z,-0.66
2022-12-12T01:55:39.506Z,-0.61
2022-12-12T01:57:48.885Z,-0.56
2022-12-12T01:59:56.472Z,-0.64
2022-12-12T02:02:01.266Z,-0.72
2022-12-12T02:04:06.580Z,-0.64
2022-12-12T02:06:15.613Z,-0.63
2022-12-12T02:08:22.375Z,-0.58
2022-12-12T02:10:27.223Z,-0.58
2022-12-12T02:12:34.490Z,-0.63
2022-12-12T02:14:42.925Z,-0.61
2022-12-12T02:17:12.812Z,-0.61
2022-12-12T02:19:42.028Z,-0.63
2022-12-12T02:21:52.445Z,-0.58
2022-12-12T02:24:31.313Z,-0.55
2022-12-12T02:27:11.803Z,-0.53
2022-12-12T02:29:52.493Z,-0.64
2022-12-12T02:32:07.871Z,-0.72
2022-12-12T02:34:22.151Z,-0.64
2022-12-12T02:36:36.141Z,-0.70
2022-12-12T02:38:50.094Z,-0.58
2022-12-12T02:41:04.274Z,-0.43
2022-12-12T02:43:15.867Z,-0.45
2022-12-12T02:45:28.324Z,-0.48
2022-12-12T02:47:38.666Z,-0.44
2022-12-12T02:49:46.985Z,-0.37
2022-12-12T02:51:53.978Z,-0.28
2022-12-12T02:54:01.047Z,-0.30
2022-12-12T02:56:07.594Z,-0.29
2022-12-12T02:58:12.472Z,-0.32
2022-12-12T03:00:19.515Z,-0.38
2022-12-12T03:03:15.706Z,-0.41
2022-12-12T03:05:49.811Z,-0.55
2022-12-12T03:08:07.426Z,-0.70
2022-12-12T03:10:19.510Z,-0.74
2022-12-12T03:12:34.459Z,-0.81
2022-12-12T03:14:51.142Z,-0.79
2022-12-12T03:17:06.268Z,-0.74
2022-12-12T03:19:19.399Z,-0.62
2022-12-12T03:21:27.543Z,-0.59
2022-12-12T03:23:37.432Z,-0.57
2022-12-12T03:25:50.506Z,-0.50
2022-12-12T03:28:01.686Z,-0.42
2022-12-12T03:30:10.194Z,-0.43
2022-12-12T03:32:21.373Z,-0.51
2022-12-12T03:34:32.415Z,-0.48
2022-12-12T03:36:42.445Z,-0.40
2022-12-12T03:38:57.173Z,-0.24
2022-12-12T03:41:04.679Z,-0.10
2022-12-12T03:43:14.009Z,0.04
2022-12-12T03:45:26.312Z,0.06
2022-12-12T03:47:36.282Z,0.08
2022-12-12T03:49:47.146Z,0.17
2022-12-12T03:51:58.339Z,0.29
2022-12-12T03:54:12.531Z,0.27
2022-12-12T03:56:25.392Z,0.16
2022-12-12T03:58:33.468Z,0.25
2022-12-12T04:00:42.363Z,0.01
2022-12-12T04:02:54.299Z,-0.11
2022-12-12T04:05:11.368Z,-0.17
2022-12-12T04:07:20.285Z,-0.24
2022-12-12T04:09:39.062Z,-0.27
2022-12-12T04:11:59.401Z,-0.42
2022-12-12T04:14:12.898Z,-0.40
2022-12-12T04:16:23.005Z,-0.49
2022-12-12T04:18:39.743Z,-0.61
2022-12-12T04:21:11.481Z,-0.68
2022-12-12T04:23:22.705Z,-0.74
2022-12-12T04:25:35.506Z,-0.82
2022-12-12T04:27:45.903Z,-0.77
2022-12-12T04:29:56.749Z,-0.69
2022-12-12T04:32:07.378Z,-0.67
2022-12-12T04:34:18.124Z,-0.57
2022-12-12T04:36:27.317Z,-0.43
2022-12-12T04:38:33.196Z,-0.37
2022-12-12T04:40:42.786Z,-0.40
2022-12-12T04:42:54.275Z,-0.44
2022-12-12T04:45:04.567Z,-0.50
2022-12-12T04:47:11.485Z,-0.49
2022-12-12T04:49:20.931Z,-0.57
2022-12-12T04:51:32.962Z,-0.68
2022-12-12T04:53:42.258Z,-0.63
2022-12-12T04:55:51.252Z,-0.60
2022-12-12T04:57:57.877Z,-0.56
2022-12-12T05:00:03.025Z,-0.65
2022-12-12T05:02:11.782Z,-0.62
2022-12-12T05:04:22.541Z,-0.71
2022-12-12T05:06:34.796Z,-0.75
2022-12-12T05:08:43.611Z,-0.77
2022-12-12T05:10:53.493Z,-0.80
2022-12-12T05:13:01.898Z,-0.84
2022-12-12T05:15:11.981Z,-0.79
2022-12-12T05:17:21.511Z,-0.90
2022-12-12T05:19:26.344Z,-0.94
2022-12-12T05:21:33.922Z,-0.97
2022-12-12T05:23:38.754Z,-0.91
2022-12-12T05:25:43.539Z,-0.90
2022-12-12T05:27:48.344Z,-0.93
2022-12-12T05:29:53.098Z,-0.91
2022-12-12T05:31:58.012Z,-0.84
2022-12-12T05:34:03.425Z,-0.85
2022-12-12T05:36:09.451Z,-0.93
2022-12-12T05:38:17.251Z,-0.84
2022-12-12T05:40:24.109Z,-0.79
2022-12-12T05:42:30.591Z,-0.73
2022-12-12T05:44:36.095Z,-0.69
2022-12-12T05:46:41.795Z,-0.63
2022-12-12T05:48:50.806Z,-0.63
2022-12-12T05:50:56.929Z,-0.58
2022-12-12T05:53:02.762Z,-0.61
2022-12-12T05:55:12.134Z,-0.56
2022-12-12T05:57:19.178Z,-0.52
2022-12-12T05:59:24.082Z,-0.48
2022-12-12T06:01:28.999Z,-0.48
2022-12-12T06:03:34.192Z,-0.48
2022-12-12T06:05:39.138Z,-0.48
2022-12-12T06:07:43.921Z,-0.61
2022-12-12T06:09:48.812Z,-0.66
2022-12-12T06:11:56.194Z,-0.62
2022-12-12T06:14:01.364Z,-0.61
2022-12-12T06:16:08.310Z,-0.59
2022-12-12T06:18:13.351Z,-0.59
2022-12-12T06:20:18.183Z,-0.62
2022-12-12T06:22:22.935Z,-0.59
2022-12-12T06:24:27.800Z,-0.63
2022-12-12T06:26:32.664Z,-0.77
2022-12-12T06:28:40.525Z,-0.77
2022-12-12T06:30:45.334Z,-0.82
2022-12-12T06:32:50.179Z,-0.89
2022-12-12T06:34:55.133Z,-0.88
2022-12-12T06:36:59.948Z,-0.84
2022-12-12T06:39:04.865Z,-0.81
2022-12-12T06:41:10.796Z,-0.84
2022-12-12T06:43:15.558Z,-0.84
2022-12-12T06:45:22.989Z,-0.94
2022-12-12T06:47:27.872Z,-0.95
2022-12-12T06:49:32.685Z,-0.97
2022-12-12T06:51:38.863Z,-1.04
2022-12-12T06:53:44.101Z,-1.07
2022-12-12T06:55:48.915Z,-1.09
2022-12-12T06:57:53.766Z,-1.16
2022-12-12T06:59:58.577Z,-1.14
2022-12-12T07:02:06.364Z,-1.15
2022-12-12T07:04:11.474Z,-1.10
2022-12-12T07:06:17.132Z,-1.07
2022-12-12T07:08:22.010Z,-1.08
2022-12-12T07:10:26.912Z,-1.06
2022-12-12T07:12:31.702Z,-1.11
2022-12-12T07:14:36.462Z,-1.09
2022-12-12T07:16:41.486Z,-1.09
2022-12-12T07:18:49.492Z,-1.08
2022-12-12T07:20:54.296Z,-1.10
2022-12-12T07:22:59.071Z,-1.18
2022-12-12T07:25:03.848Z,-1.17
2022-12-12T07:27:09.271Z,-1.14
2022-12-12T07:29:15.301Z,-1.12
2022-12-12T07:31:21.962Z,-1.09
2022-12-12T07:33:34.280Z,-1.08
2022-12-12T07:35:48.633Z,-1.05
2022-12-12T07:37:53.555Z,-1.08
2022-12-12T07:39:58.337Z,-1.07
2022-12-12T07:42:03.312Z,-1.10
2022-12-12T07:44:08.214Z,-1.08
2022-12-12T07:46:16.227Z,-1.09
2022-12-12T07:48:21.184Z,-0.99
2022-12-12T07:50:25.998Z,-0.98
2022-12-12T07:52:33.413Z,-0.87
2022-12-12T07:54:38.381Z,-0.79
2022-12-12T07:56:43.180Z,-0.72
2022-12-12T07:58:48.468Z,-0.62
2022-12-12T08:00:53.637Z,-0.60
2022-12-12T08:02:58.206Z,-0.62
2022-12-12T08:05:03.034Z,-0.50
2022-12-12T08:07:08.721Z,-0.41
2022-12-12T08:09:16.789Z,-0.28
2022-12-12T08:11:23.276Z,-0.20
2022-12-12T08:13:28.177Z,-0.12
2022-12-12T08:15:33.150Z,-0.06
2022-12-12T08:17:37.937Z,-0.06
2022-12-12T08:19:43.035Z,-0.18
2022-12-12T08:21:48.672Z,-0.13
2022-12-12T08:23:53.486Z,-0.11
2022-12-12T08:26:05.343Z,-0.14
2022-12-12T08:28:10.217Z,-0.07
2022-12-12T08:30:16.441Z,-0.11
2022-12-12T08:32:21.355Z,-0.14
2022-12-12T08:34:26.381Z,-0.22
2022-12-12T08:36:32.717Z,-0.31
2022-12-12T08:38:37.649Z,-0.29
2022-12-12T08:40:43.036Z,-0.20
2022-12-12T08:42:50.478Z,-0.11
2022-12-12T08:44:55.579Z,-0.05
2022-12-12T08:47:00.400Z,0.01
2022-12-12T08:49:05.238Z,0.05
2022-12-12T08:51:10.342Z,-0.13
2022-12-12T08:53:14.866Z,-0.11
2022-12-12T08:55:20.276Z,-0.13
2022-12-12T08:57:26.174Z,-0.14
2022-12-12T08:59:36.048Z,-0.14
2022-12-12T09:01:41.069Z,-0.12
2022-12-12T09:03:45.809Z,-0.12
2022-12-12T09:05:50.637Z,-0.14
2022-12-12T09:07:55.444Z,-0.13
2022-12-12T09:10:00.381Z,-0.13
2022-12-12T09:12:05.400Z,-0.14
2022-12-12T09:14:09.929Z,-0.17
2022-12-12T09:16:17.376Z,-0.19
2022-12-12T09:18:22.969Z,-0.14
2022-12-12T09:20:27.704Z,-0.17
2022-12-12T09:22:32.655Z,-0.15
2022-12-12T09:24:37.458Z,-0.12
2022-12-12T09:26:42.364Z,-0.06
2022-12-12T09:28:47.222Z,-0.05
2022-12-12T09:30:52.705Z,0.03
2022-12-12T09:33:00.059Z,0.14
2022-12-12T09:35:04.984Z,0.18
2022-12-12T09:37:09.769Z,0.27
2022-12-12T09:39:14.666Z,0.35
2022-12-12T09:41:22.270Z,0.31
2022-12-12T09:43:30.552Z,0.37
2022-12-12T09:45:39.183Z,0.32
2022-12-12T09:47:47.330Z,0.34
2022-12-12T09:49:57.168Z,0.29
2022-12-12T09:52:02.900Z,0.21
2022-12-12T09:54:08.680Z,0.28
2022-12-12T09:56:19.312Z,0.27
2022-12-12T09:58:29.838Z,0.28
2022-12-12T10:00:39.371Z,0.35
2022-12-12T10:03:01.365Z,0.40
2022-12-12T10:05:18.449Z,0.47
2022-12-12T10:07:28.309Z,0.52
2022-12-12T10:09:45.394Z,0.60
2022-12-12T10:11:54.673Z,0.58
2022-12-12T10:14:03.782Z,0.62
2022-12-12T10:16:16.979Z,0.71
2022-12-12T10:18:43.969Z,0.67
2022-12-12T10:23:28.550Z,0.63
2022-12-12T10:25:44.398Z,0.66
2022-12-12T10:27:52.828Z,0.53
2022-12-12T10:29:58.625Z,0.50
2022-12-12T10:32:14.128Z,0.47
2022-12-12T10:34:31.559Z,0.54
2022-12-12T10:36:57.182Z,0.71
2022-12-12T10:39:11.799Z,0.97
2022-12-12T10:41:23.533Z,1.17
2022-12-12T10:43:35.650Z,1.30
2022-12-12T10:45:54.598Z,1.25
2022-12-12T10:47:59.527Z,1.18
2022-12-12T10:50:19.167Z,1.15
2022-12-12T10:52:26.731Z,1.05
2022-12-12T10:54:35.331Z,0.92
2022-12-12T10:56:40.109Z,0.82
2022-12-12T10:58:46.578Z,0.69
2022-12-12T11:00:52.482Z,0.92
2022-12-12T11:03:00.536Z,1.11
2022-12-12T11:05:13.660Z,1.29
2022-12-12T11:07:23.638Z,1.15
2022-12-12T11:09:33.295Z,1.00
2022-12-12T11:11:38.367Z,1.10
2022-12-12T11:13:48.380Z,1.06
2022-12-12T11:15:55.024Z,1.17
2022-12-12T11:18:05.943Z,1.23
2022-12-12T11:20:20.374Z,1.23
2022-12-12T11:22:25.580Z,1.32
2022-12-12T11:24:34.327Z,1.35
2022-12-12T11:26:46.318Z,1.17
2022-12-12T11:28:57.196Z,1.01
2022-12-12T11:31:06.911Z,1.04
2022-12-12T11:33:19.227Z,1.19
2022-12-12T11:35:30.523Z,1.15
2022-12-12T11:37:41.245Z,1.09
2022-12-12T11:39:52.500Z,0.98
2022-12-12T11:42:02.179Z,0.97
2022-12-12T11:44:06.989Z,0.85
2022-12-12T11:46:23.235Z,0.74
2022-12-12T11:48:41.136Z,0.68
2022-12-12T11:50:48.683Z,0.65
2022-12-12T11:52:56.028Z,0.70
2022-12-12T11:55:04.247Z,0.81
2022-12-12T11:57:15.130Z,0.93
2022-12-12T11:59:56.745Z,1.04
2022-12-12T12:02:18.352Z,1.08
2022-12-12T12:04:41.649Z,1.14
2022-12-12T12:07:04.534Z,1.15
2022-12-12T12:09:25.857Z,1.22
2022-12-12T12:11:45.073Z,1.04
2022-12-12T12:14:05.035Z,1.11
2022-12-12T12:16:21.160Z,1.10
2022-12-12T12:18:41.399Z,0.89
2022-12-12T12:21:06.258Z,1.10
2022-12-12T12:23:23.324Z,1.04
2022-12-12T12:25:38.721Z,1.00
2022-12-12T12:27:49.459Z,0.97
2022-12-12T12:30:23.318Z,1.10
2022-12-12T12:32:37.130Z,1.20
2022-12-12T12:34:54.783Z,1.17
2022-12-12T12:37:13.794Z,1.21
2022-12-12T12:39:43.544Z,1.11
2022-12-12T12:42:01.323Z,1.05
2022-12-12T12:44:25.933Z,0.94
2022-12-12T12:46:44.684Z,0.99
2022-12-12T12:48:53.362Z,1.01
2022-12-12T12:51:06.112Z,1.08
2022-12-12T12:53:24.408Z,1.18
2022-12-12T12:55:35.547Z,1.25
2022-12-12T12:57:45.661Z,1.03
2022-12-12T12:59:56.361Z,0.74
2022-12-12T13:02:07.347Z,0.58
2022-12-12T13:04:19.746Z,0.68
2022-12-12T13:06:37.192Z,0.82
2022-12-12T13:08:53.759Z,0.92
2022-12-12T13:11:02.842Z,1.05
2022-12-12T13:13:15.455Z,1.08
2022-12-12T13:15:25.590Z,0.97
2022-12-12T13:17:46.429Z,1.10
2022-12-12T13:19:54.007Z,1.03
2022-12-12T13:22:07.278Z,0.90
2022-12-12T13:24:18.588Z,0.92
2022-12-12T13:26:30.542Z,0.99
2022-12-12T13:28:39.508Z,1.11
2022-12-12T13:31:12.897Z,1.18
2022-12-12T13:33:39.542Z,1.18
2022-12-12T13:35:48.704Z,1.14
2022-12-12T13:37:56.028Z,1.09
2022-12-12T13:40:04.776Z,1.09
2022-12-12T13:42:12.335Z,1.08
2022-12-12T13:44:37.165Z,1.13
2022-12-12T13:46:45.609Z,1.10
2022-12-12T13:48:54.300Z,1.10
2022-12-12T13:51:31.074Z,1.16
2022-12-12T13:53:35.932Z,1.19
2022-12-12T13:55:41.205Z,0.98
2022-12-12T13:58:10.409Z,0.91
2022-12-12T14:00:22.604Z,0.96
2022-12-12T14:02:34.293Z,1.03
2022-12-12T14:04:41.154Z,1.01
2022-12-12T14:06:45.949Z,1.09
2022-12-12T14:08:54.031Z,1.09
2022-12-12T14:11:03.677Z,0.99
2022-12-12T14:13:29.182Z,0.98
2022-12-12T14:15:35.217Z,1.06
2022-12-12T14:17:43.375Z,1.13
2022-12-12T14:19:53.059Z,1.21
2022-12-12T14:21:58.218Z,1.18
2022-12-12T14:24:22.828Z,1.09
2022-12-12T14:26:52.514Z,1.04
2022-12-12T14:29:28.373Z,1.01
2022-12-12T14:31:38.528Z,0.92
2022-12-12T14:34:07.875Z,0.92
2022-12-12T14:36:31.912Z,0.87
2022-12-12T14:38:48.202Z,0.83
2022-12-12T14:40:58.880Z,0.76
2022-12-12T14:43:19.563Z,0.70
2022-12-12T14:45:36.532Z,0.61
2022-12-12T14:47:44.374Z,0.58
2022-12-12T14:50:09.982Z,0.49
2022-12-12T14:52:19.501Z,0.45
2022-12-12T14:54:27.314Z,0.42
2022-12-12T14:56:36.258Z,0.40
2022-12-12T14:58:44.053Z,0.39
2022-12-12T15:00:53.136Z,0.31
2022-12-12T15:02:58.198Z,0.24
2022-12-12T15:05:09.002Z,0.22
2022-12-12T15:07:26.658Z,0.17
2022-12-12T15:09:33.897Z,0.15
2022-12-12T15:11:41.993Z,0.03
2022-12-12T15:13:53.977Z,-0.05
2022-12-12T15:15:58.869Z,-0.08
2022-12-12T15:18:04.363Z,-0.12
2022-12-12T15:20:19.787Z,-0.13
2022-12-12T15:22:27.179Z,-0.21
2022-12-12T15:24:39.535Z,-0.26
2022-12-12T15:26:47.792Z,-0.26
2022-12-12T15:28:54.855Z,-0.26
2022-12-12T15:31:01.196Z,-0.20
2022-12-12T15:33:09.053Z,-0.20
2022-12-12T15:35:21.764Z,-0.19
2022-12-12T15:37:32.696Z,-0.24
2022-12-12T15:39:37.935Z,-0.16
2022-12-12T15:41:43.025Z,-0.17
2022-12-12T15:43:47.924Z,-0.15
2022-12-12T15:45:55.844Z,-0.18
2022-12-12T15:48:01.349Z,-0.11
2022-12-12T15:50:10.908Z,-0.04
2022-12-12T15:52:28.164Z,0.02
2022-12-12T15:54:33.060Z,-0.01
2022-12-12T15:56:37.897Z,-0.05
2022-12-12T15:58:45.112Z,0.00
2022-12-12T16:00:52.801Z,0.05
2022-12-12T16:03:03.155Z,0.09
2022-12-12T16:05:11.097Z,0.11
2022-12-12T16:07:26.590Z,0.06
2022-12-12T16:09:32.054Z,-0.01
2022-12-12T16:11:43.023Z,0.01
2022-12-12T16:13:47.983Z,0.03
2022-12-12T16:15:52.892Z,0.12
2022-12-12T16:18:02.888Z,0.18
2022-12-12T16:20:14.211Z,0.19
2022-12-12T16:22:39.935Z,0.24
2022-12-12T16:24:52.421Z,0.27
2022-12-12T16:27:00.619Z,0.30
2022-12-12T16:29:06.255Z,0.29
2022-12-12T16:31:17.940Z,0.23
2022-12-12T16:33:32.053Z,0.23
2022-12-12T16:35:36.888Z,0.24
2022-12-12T16:37:41.703Z,0.26
2022-12-12T16:39:47.126Z,0.26
2022-12-12T16:41:54.923Z,0.32
2022-12-12T16:44:00.395Z,0.31
2022-12-12T16:46:06.157Z,0.31
2022-12-12T16:48:17.506Z,0.26
2022-12-12T16:50:22.333Z,0.23
2022-12-12T16:52:27.179Z,0.18
2022-12-12T16:54:32.083Z,0.13
2022-12-12T16:56:36.878Z,0.06
2022-12-12T16:58:44.312Z,-0.06
2022-12-12T17:00:49.318Z,-0.14
2022-12-12T17:02:54.223Z,-0.12
2022-12-12T17:04:59.011Z,-0.12
2022-12-12T17:07:08.020Z,-0.11
2022-12-12T17:09:12.798Z,-0.05
2022-12-12T17:11:17.592Z,-0.07
2022-12-12T17:13:24.874Z,-0.13
2022-12-12T17:15:34.078Z,-0.18
2022-12-12T17:17:38.871Z,-0.21
2022-12-12T17:19:43.696Z,-0.21
2022-12-12T17:21:48.741Z,-0.26
2022-12-12T17:23:53.318Z,-0.36
2022-12-12T17:26:03.567Z,-0.43
2022-12-12T17:28:09.276Z,-0.49
2022-12-12T17:30:15.808Z,-0.52
2022-12-12T17:32:24.673Z,-0.57
2022-12-12T17:34:29.490Z,-0.63
2022-12-12T17:36:34.336Z,-0.70
2022-12-12T17:38:39.190Z,-0.75
2022-12-12T17:40:45.941Z,-0.76
2022-12-12T17:42:50.773Z,-0.77
2022-12-12T17:44:55.599Z,-0.78
2022-12-12T17:47:00.400Z,-0.78
2022-12-12T17:49:07.950Z,-0.77
2022-12-12T17:51:14.581Z,-0.76
2022-12-12T17:53:19.386Z,-0.74
2022-12-12T17:55:53.231Z,-0.73
2022-12-12T17:57:50.105Z,-0.71
2022-12-12T17:59:54.887Z,-0.67
2022-12-12T18:01:59.808Z,-0.65
2022-12-12T18:04:09.111Z,-0.63
2022-12-12T18:06:14.470Z,-0.63
2022-12-12T18:08:18.997Z,-0.65
2022-12-12T18:10:23.878Z,-0.68
2022-12-12T18:12:28.704Z,-0.69
2022-12-12T18:14:33.850Z,-0.69
2022-12-12T18:16:39.508Z,-0.67
2022-12-12T18:18:44.524Z,-0.66
2022-12-12T18:20:52.354Z,-0.70
2022-12-12T18:22:57.641Z,-0.73
2022-12-12T18:25:02.424Z,-0.76
2022-12-12T18:27:07.543Z,-0.80
2022-12-12T18:29:15.881Z,-0.82
2022-12-12T18:31:20.756Z,-0.83
2022-12-12T18:33:25.592Z,-0.92
2022-12-12T18:35:30.425Z,-0.96
2022-12-12T18:37:37.787Z,-1.06
2022-12-12T18:39:42.618Z,-1.14
2022-12-12T18:41:47.366Z,-1.19
2022-12-12T18:43:52.482Z,-1.22
2022-12-12T18:45:57.357Z,-1.22
2022-12-12T18:48:02.298Z,-1.28
2022-12-12T18:50:08.269Z,-1.37
2022-12-12T18:52:13.129Z,-1.44
2022-12-12T18:54:20.744Z,-1.52
2022-12-12T18:56:27.404Z,-1.57
2022-12-12T18:58:32.212Z,-1.61
2022-12-12T19:00:39.993Z,-1.69
2022-12-12T19:02:44.868Z,-1.73
2022-12-12T19:04:50.351Z,-1.84
2022-12-12T19:06:55.491Z,-1.94
2022-12-12T19:09:00.818Z,-2.03
2022-12-12T19:11:09.175Z,-2.10
2022-12-12T19:13:13.997Z,-2.22
2022-12-12T19:15:18.832Z,-2.26
2022-12-12T19:17:26.192Z,-2.33
2022-12-12T19:19:31.456Z,-2.35
2022-12-12T19:21:36.563Z,-2.36
2022-12-12T19:23:41.526Z,-2.37
2022-12-12T19:25:46.425Z,-2.37
2022-12-12T19:27:53.956Z,-2.38
2022-12-12T19:29:58.780Z,-2.43
2022-12-12T19:32:03.597Z,-2.44
2022-12-12T19:34:09.856Z,-2.47
2022-12-12T19:36:17.810Z,-2.45
2022-12-12T19:38:24.469Z,-2.43
2022-12-12T19:40:29.889Z,-2.44
2022-12-12T19:42:34.734Z,-2.45
2022-12-12T19:44:43.725Z,-2.46
2022-12-12T19:46:48.944Z,-2.45
2022-12-12T19:48:57.219Z,-2.46
2022-12-12T19:51:07.408Z,-2.44
2022-12-12T19:53:12.234Z,-2.43
2022-12-12T19:55:17.093Z,-2.43
2022-12-12T19:57:26.224Z,-2.41
2022-12-12T19:59:31.060Z,-2.42
2022-12-12T20:01:39.685Z,-2.40
2022-12-12T20:03:44.982Z,-2.38
2022-12-12T20:05:53.532Z,-2.34
2022-12-12T20:07:59.624Z,-2.30
2022-12-12T20:10:04.592Z,-2.29
2022-12-12T20:12:09.438Z,-2.32
2022-12-12T20:14:15.799Z,-2.33
2022-12-12T20:16:23.418Z,-2.37
2022-12-12T20:18:32.755Z,-2.37
2022-12-12T20:20:37.695Z,-2.39
2022-12-12T20:22:42.470Z,-2.38
2022-12-12T20:24:47.485Z,-2.37
2022-12-12T20:26:52.959Z,-2.41
2022-12-12T20:28:59.980Z,-2.40
2022-12-12T20:31:09.896Z,-2.41
2022-12-12T20:33:14.805Z,-2.43
2022-12-12T20:35:22.167Z,-2.47
2022-12-12T20:37:27.014Z,-2.54
2022-12-12T20:39:31.957Z,-2.59
2022-12-12T20:41:40.917Z,-2.64
2022-12-12T20:43:46.776Z,-2.64
2022-12-12T20:45:51.622Z,-2.61
2022-12-12T20:47:56.486Z,-2.60
2022-12-12T20:50:02.836Z,-2.61
2022-12-12T20:52:10.289Z,-2.61
2022-12-12T20:54:17.097Z,-2.60
2022-12-12T20:56:22.895Z,-2.64
2022-12-12T20:58:27.688Z,-2.67
2022-12-12T21:00:35.827Z,-2.67
2022-12-12T21:02:42.723Z,-2.71
2022-12-12T21:04:47.918Z,-2.75
2022-12-12T21:06:52.771Z,-2.76
2022-12-12T21:09:03.266Z,-2.79
2022-12-12T21:11:08.805Z,-2.82
2022-12-12T21:13:14.504Z,-2.87
2022-12-12T21:15:19.837Z,-2.92
2022-12-12T21:17:25.046Z,-2.93
2022-12-12T21:19:30.115Z,-3.01
2022-12-12T21:21:34.724Z,-3.00
2022-12-12T21:23:40.518Z,-3.03
2022-12-12T21:25:47.995Z,-3.01
2022-12-12T21:27:53.197Z,-2.98
2022-12-12T21:29:58.088Z,-2.99
2022-12-12T21:32:03.057Z,-3.03
2022-12-12T21:34:08.564Z,-3.14
2022-12-12T21:36:15.874Z,-3.19
2022-12-12T21:38:20.632Z,-3.26
2022-12-12T21:40:25.508Z,-3.32
2022-12-12T21:42:32.885Z,-3.37
2022-12-12T21:44:44.023Z,-3.39
2022-12-12T21:46:50.625Z,-3.37
2022-12-12T21:49:07.716Z,-3.33
2022-12-12T21:51:17.005Z,-3.35
2022-12-12T21:53:37.916Z,-3.35
2022-12-12T21:55:43.593Z,-3.37
2022-12-12T21:57:51.026Z,-3.37
2022-12-12T21:59:55.969Z,-3.38
2022-12-12T22:02:02.318Z,-3.38
2022-12-12T22:04:07.588Z,-3.34
2022-12-12T22:06:13.877Z,-3.30
2022-12-12T22:08:18.672Z,-3.25
2022-12-12T22:10:23.560Z,-3.19
2022-12-12T22:12:30.034Z,-3.13
2022-12-12T22:14:38.614Z,-3.09
2022-12-12T22:16:43.366Z,-3.11
2022-12-12T22:18:48.742Z,-3.11
2022-12-12T22:20:53.548Z,-3.12
2022-12-12T22:22:58.490Z,-3.11
2022-12-12T22:25:03.250Z,-3.15
2022-12-12T22:27:08.096Z,-3.17
2022-12-12T22:29:14.973Z,-3.18
2022-12-12T22:31:23.579Z,-3.18
2022-12-12T22:33:28.378Z,-3.19
2022-12-12T22:35:33.164Z,-3.17
2022-12-12T22:37:37.974Z,-3.15
2022-12-12T22:39:42.823Z,-3.12
2022-12-12T22:41:48.158Z,-3.09
2022-12-12T22:43:56.509Z,-3.06
2022-12-12T22:46:06.528Z,-3.04
2022-12-12T22:48:14.006Z,-3.05
2022-12-12T22:50:18.872Z,-3.07
2022-12-12T22:52:25.484Z,-3.08
2022-12-12T22:54:30.407Z,-3.11
2022-12-12T22:56:36.396Z,-3.10
2022-12-12T22:58:41.244Z,-3.14
2022-12-12T23:00:46.105Z,-3.19
2022-12-12T23:02:51.002Z,-3.26
2022-12-12T23:04:58.611Z,-3.32
2022-12-12T23:07:03.579Z,-3.38
2022-12-12T23:09:10.330Z,-3.45
2022-12-12T23:11:16.983Z,-3.54
2022-12-12T23:13:22.001Z,-3.59
2022-12-12T23:15:26.555Z,-3.64
2022-12-12T23:17:31.393Z,-3.72
2022-12-12T23:19:36.213Z,-3.75
2022-12-12T23:21:44.281Z,-3.76
2022-12-12T23:23:49.275Z,-3.83
2022-12-12T23:25:54.076Z,-3.84
2022-12-12T23:27:58.877Z,-3.93
2022-12-12T23:30:03.714Z,-3.96
2022-12-12T23:32:08.587Z,-3.99
2022-12-12T23:34:20.690Z,-4.06
2022-12-12T23:36:26.386Z,-4.13
2022-12-12T23:38:33.845Z,-4.20
2022-12-12T23:40:38.701Z,-4.31
2022-12-12T23:42:43.518Z,-4.32
2022-12-12T23:44:50.839Z,-4.30
2022-12-12T23:46:58.211Z,-4.43
2022-12-12T23:49:04.972Z,-4.46
2022-12-12T23:51:09.718Z,-4.52
2022-12-12T23:53:14.525Z,-4.50
2022-12-12T23:55:22.451Z,-4.55
2022-12-12T23:57:27.228Z,-4.56
2022-12-12T23:59:32.188Z,-4.58
